Flughafen Wetterinformationen

LTBA 070920Z 21006KT 140V250 9999 BKN032 28/23 Q1003 NOSIG

VATSIM Feed

Card image cap

ATC Buchungen

Es wurde keine Position gebucht

Card image cap

Aktive Flugsicherung

Luftraum Name Rating Frequenz
LTFM_TWR Kerim S1 131.100

Blog

Read our latest news and get to know us better.